Time;durP1;ratioP1;P1;durP2;ratioP2;P2;SDS_P1;SDS_P2;PMS_P1;PMS_P2;Temp;Humidity;BMP_temperature;BMP_pressure;BME280_temperature;BME280_humidity;BME280_pressure;Samples;Min_cycle;Max_cycle;Signal;HPM_P1;HPM_P2
2022/04/27 00:01:56;;;;;;;3.47;3.17;;;;;;;11.91;100.00;63220.75;5106068;28;20246;-78
2022/04/27 00:04:23;;;;;;;3.28;3.05;;;;;;;11.97;100.00;63235.16;5106177;28;20188;-77
2022/04/27 00:06:50;;;;;;;4.13;3.10;;;;;;;11.90;100.00;63222.25;5104919;28;20232;-78
2022/04/27 00:09:17;;;;;;;3.00;2.85;;;;;;;11.82;100.00;63219.09;5102949;28;20201;-78
2022/04/27 00:11:45;;;;;;;2.92;2.80;;;;;;;11.84;100.00;63219.09;5105002;28;20202;-78
2022/04/27 00:14:12;;;;;;;2.80;2.42;;;;;;;11.90;100.00;63222.25;5103991;28;20199;-78
2022/04/27 00:16:39;;;;;;;2.92;2.78;;;;;;;11.90;100.00;63222.78;5101443;28;20237;-78
2022/04/27 00:19:05;;;;;;;4.03;3.63;;;;;;;11.89;100.00;63226.84;5104534;28;20215;-77
2022/04/27 00:21:32;;;;;;;3.83;3.20;;;;;;;11.85;100.00;63222.19;5102647;28;20273;-78
2022/04/27 00:23:59;;;;;;;3.05;2.85;;;;;;;11.85;100.00;63219.63;5104951;28;20230;-77
2022/04/27 00:26:26;;;;;;;3.05;2.85;;;;;;;11.88;100.00;63222.72;5101800;28;20245;-77
2022/04/27 00:28:54;;;;;;;2.63;2.53;;;;;;;11.91;100.00;63228.91;5102742;28;20219;-78
2022/04/27 00:31:21;;;;;;;3.95;3.50;;;;;;;11.85;100.00;63222.72;5102713;28;20513;-78
2022/04/27 00:33:48;;;;;;;5.30;3.55;;;;;;;11.82;100.00;63211.94;5104634;28;20215;-78
2022/04/27 00:36:15;;;;;;;3.35;3.15;;;;;;;11.76;100.00;63213.38;5100227;28;20196;-78
2022/04/27 00:38:42;;;;;;;5.88;3.25;;;;;;;11.82;100.00;63217.03;5103216;28;20215;-77
2022/04/27 00:41:09;;;;;;;9.30;3.13;;;;;;;11.74;100.00;63216.41;5102013;28;20235;-77
2022/04/27 00:43:37;;;;;;;3.75;3.40;;;;;;;11.72;100.00;63203.63;5101092;28;20208;-78
2022/04/27 00:46:06;;;;;;;4.57;4.18;;;;;;;11.69;100.00;63210.69;5099092;28;20200;-77
2022/04/27 00:48:33;;;;;;;3.80;3.50;;;;;;;11.59;100.00;63198.28;5103104;28;20231;-77
2022/04/27 00:51:02;;;;;;;3.38;3.15;;;;;;;11.56;100.00;63190.59;5098652;28;20200;-78
2022/04/27 00:53:30;;;;;;;4.07;3.78;;;;;;;11.51;100.00;63182.88;5083951;28;20295;-78
2022/04/27 00:55:58;;;;;;;5.43;3.13;;;;;;;11.50;100.00;63184.38;5083529;28;20237;-77
2022/04/27 00:58:26;;;;;;;3.60;3.30;;;;;;;11.51;100.00;63182.88;5091959;28;20215;-78
2022/04/27 01:00:54;;;;;;;3.30;3.08;;;;;;;11.43;100.00;63177.13;5097501;28;20246;-77
2022/04/27 01:03:22;;;;;;;4.38;3.42;;;;;;;11.47;100.00;63178.22;5102575;28;20536;-76
2022/04/27 01:05:50;;;;;;;3.58;3.30;;;;;;;11.43;100.00;63177.13;5102929;28;20192;-78
2022/04/27 01:08:19;;;;;;;3.97;3.60;;;;;;;11.41;100.00;63180.16;5102560;28;20337;-77
2022/04/27 01:10:48;;;;;;;3.53;3.25;;;;;;;11.42;100.00;63175.59;5100318;28;20234;-77
2022/04/27 01:13:16;;;;;;;5.63;3.60;;;;;;;11.31;100.00;63162.16;5103800;28;20219;-77
2022/04/27 01:15:43;;;;;;;3.00;2.70;;;;;;;11.16;100.00;63151.72;5103449;28;20195;-77
2022/04/27 01:18:10;;;;;;;3.50;3.30;;;;;;;11.09;100.00;63143.97;5098373;28;20560;-77
2022/04/27 01:20:40;;;;;;;4.07;3.78;;;;;;;11.06;100.00;63140.84;5103462;28;20241;-77
2022/04/27 01:23:07;;;;;;;4.07;3.00;;;;;;;11.03;100.00;63133.16;5104109;28;20236;-76
2022/04/27 01:25:49;;;;;;;4.88;3.70;;;;;;;10.98;100.00;63137.66;5103142;28;20204;-77
2022/04/27 01:28:17;;;;;;;4.72;3.20;;;;;;;10.91;100.00;63118.19;5099214;28;20224;-77
2022/04/27 01:30:44;;;;;;;4.50;3.45;;;;;;;10.87;100.00;63119.13;5103282;28;20196;-76
2022/04/27 01:33:12;;;;;;;4.10;3.53;;;;;;;10.81;100.00;63115.47;5103281;28;20224;-76
2022/04/27 01:35:41;;;;;;;4.70;3.40;;;;;;;10.78;100.00;63109.31;5103962;28;20196;-78
2022/04/27 01:38:08;;;;;;;3.42;3.13;;;;;;;10.77;100.00;63108.78;5097946;28;20220;-77
2022/04/27 01:40:35;;;;;;;3.55;3.22;;;;;;;10.75;100.00;63103.66;5103671;28;20196;-77
2022/04/27 01:43:02;;;;;;;3.40;3.10;;;;;;;10.74;100.00;63105.16;5099213;28;20475;-78
2022/04/27 01:45:29;;;;;;;3.72;2.88;;;;;;;10.76;100.00;63107.75;5083902;28;20220;-77
2022/04/27 01:47:57;;;;;;;3.22;3.08;;;;;;;10.68;100.00;63096.94;5085568;28;20217;-77
2022/04/27 01:50:24;;;;;;;3.45;3.13;;;;;;;10.61;100.00;63092.25;5086940;28;20195;-77
2022/04/27 01:55:36;;;;;;;3.65;3.45;;;;;;;10.47;100.00;63073.16;5087401;28;20279;-78
2022/04/27 01:58:03;;;;;;;4.82;3.75;;;;;;;10.45;100.00;63078.22;5085712;28;20246;-77
2022/04/27 02:00:30;;;;;;;4.05;3.67;;;;;;;10.43;100.00;63076.66;5086153;28;20200;-77
2022/04/27 02:02:57;;;;;;;3.95;3.40;;;;;;;10.42;100.00;63073.06;5099562;28;20586;-78
2022/04/27 02:05:24;;;;;;;7.22;3.85;;;;;;;10.38;100.00;63070.97;5106522;28;20203;-77
2022/04/27 02:07:53;;;;;;;4.05;3.85;;;;;;;10.38;100.00;63068.44;5106968;28;20208;-77
2022/04/27 02:10:20;;;;;;;6.78;3.63;;;;;;;10.34;100.00;63064.28;5103516;28;20211;-77
2022/04/27 02:12:47;;;;;;;4.65;3.53;;;;;;;10.37;100.00;63073.00;5105165;28;20220;-77
2022/04/27 02:15:14;;;;;;;7.07;4.68;;;;;;;10.35;100.00;63068.38;5105247;28;20200;-78
2022/04/27 02:17:41;;;;;;;6.75;4.45;;;;;;;10.32;100.00;63069.84;5106312;28;20258;-77
2022/04/27 02:20:09;;;;;;;4.75;3.75;;;;;;;10.30;100.00;63060.66;5100707;28;20202;-77
2022/04/27 02:22:36;;;;;;;5.40;3.85;;;;;;;10.26;100.00;63056.00;5106917;28;20228;-78
2022/04/27 02:25:05;;;;;;;3.65;3.45;;;;;;;10.24;100.00;63059.03;5106022;28;20204;-78
2022/04/27 02:27:33;;;;;;;3.85;3.53;;;;;;;10.20;100.00;63047.25;5107865;28;20217;-77
2022/04/27 02:29:59;;;;;;;3.47;3.28;;;;;;;10.17;100.00;63046.69;5101823;28;20200;-77
2022/04/27 02:32:27;;;;;;;4.60;3.45;;;;;;;10.05;100.00;63039.88;5104935;28;20243;-77
2022/04/27 02:34:54;;;;;;;4.50;4.10;;;;;;;10.07;100.00;63036.34;5104463;28;20200;-77
2022/04/27 02:37:21;;;;;;;4.72;4.05;;;;;;;10.02;100.00;63031.16;5101220;28;20541;-76
2022/04/27 02:39:48;;;;;;;6.63;4.20;;;;;;;10.00;100.00;63027.06;5105166;28;20402;-77
2022/04/27 02:42:17;;;;;;;3.85;3.55;;;;;;;10.07;100.00;63039.41;5104480;28;20243;-77
2022/04/27 02:44:44;;;;;;;5.88;3.58;;;;;;;9.92;100.00;63020.81;5104775;28;20196;-77
2022/04/27 02:47:11;;;;;;;3.92;3.63;;;;;;;9.94;100.00;63023.41;5101548;28;20284;-77
2022/04/27 02:52:22;;;;;;;4.22;3.88;;;;;;;9.87;100.00;63013.63;5106699;28;20308;-77
2022/04/27 02:54:49;;;;;;;7.82;4.50;;;;;;;9.91;100.00;63022.84;5105646;28;20395;-77
2022/04/27 02:57:17;;;;;;;3.60;3.35;;;;;;;9.66;100.00;62991.38;5105613;28;20536;-77
2022/04/27 02:59:44;;;;;;;4.38;3.83;;;;;;;9.84;100.00;63015.06;5106603;28;20230;-77
2022/04/27 03:02:11;;;;;;;4.53;4.13;;;;;;;9.80;100.00;63013.50;5104940;28;20524;-77
2022/04/27 03:04:38;;;;;;;6.32;3.53;;;;;;;9.78;100.00;63006.84;5100732;28;20192;-77
2022/04/27 03:07:05;;;;;;;3.80;3.50;;;;;;;9.76;100.00;63009.34;5104680;28;20380;-77
2022/04/27 03:09:32;;;;;;;4.07;3.80;;;;;;;9.73;100.00;63001.16;5104815;28;20184;-77
2022/04/27 03:11:59;;;;;;;4.57;3.95;;;;;;;9.72;100.00;63000.66;5105506;28;20218;-78
2022/04/27 03:14:28;;;;;;;4.68;4.28;;;;;;;9.70;100.00;63001.13;5102823;28;20200;-77
2022/04/27 03:16:56;;;;;;;3.80;3.50;;;;;;;9.65;100.00;62990.88;5105290;28;20203;-77
2022/04/27 03:19:23;;;;;;;6.72;3.97;;;;;;;9.70;100.00;62998.56;5103014;28;20242;-77
2022/04/27 03:21:50;;;;;;;4.70;4.32;;;;;;;9.69;100.00;62997.03;5105294;28;20196;-77
2022/04/27 03:24:16;;;;;;;5.95;4.30;;;;;;;9.62;100.00;62992.84;5100726;28;20215;-78
2022/04/27 03:26:43;;;;;;;4.70;4.30;;;;;;;9.67;100.00;62995.47;5105071;28;20196;-77
2022/04/27 03:29:10;;;;;;;6.53;3.75;;;;;;;9.65;100.00;62992.88;5104828;28;20200;-78
2022/04/27 03:31:39;;;;;;;4.50;4.10;;;;;;;9.63;100.00;62991.34;5101179;28;20459;-77
2022/04/27 03:34:05;;;;;;;4.15;3.85;;;;;;;9.62;100.00;62985.22;5104231;28;20238;-78
2022/04/27 03:36:32;;;;;;;4.57;3.97;;;;;;;9.62;100.00;62992.84;5105141;28;20401;-77
2022/04/27 03:39:00;;;;;;;5.80;4.68;;;;;;;9.59;100.00;62986.69;5103879;28;20216;-77
2022/04/27 03:41:28;;;;;;;3.97;3.67;;;;;;;9.60;100.00;62990.25;5098472;28;20679;-77
2022/04/27 03:43:55;;;;;;;3.33;3.20;;;;;;;9.70;100.00;63003.66;5105032;28;20254;-78
2022/04/27 03:46:22;;;;;;;7.55;4.18;;;;;;;9.69;100.00;62999.56;5104070;28;20209;-77
2022/04/27 03:48:50;;;;;;;3.90;3.78;;;;;;;9.73;100.00;63004.22;5105317;28;20380;-77
2022/04/27 03:51:17;;;;;;;4.20;3.80;;;;;;;9.76;100.00;63007.34;5100535;28;20222;-77
2022/04/27 03:53:44;;;;;;;3.85;3.60;;;;;;;9.85;100.00;63016.66;5105208;28;20216;-77
2022/04/27 03:56:12;;;;;;;5.82;3.88;;;;;;;9.91;100.00;63017.75;5104727;28;20488;-78
2022/04/27 03:58:39;;;;;;;3.75;3.47;;;;;;;9.93;100.00;63022.38;5104883;28;20267;-78
2022/04/27 04:01:05;;;;;;;6.15;3.55;;;;;;;10.03;100.00;63032.19;5099047;28;20303;-79
2022/04/27 04:03:32;;;;;;;3.60;3.33;;;;;;;9.96;100.00;63028.00;5104925;28;20228;-77
2022/04/27 04:06:01;;;;;;;6.18;3.90;;;;;;;9.93;100.00;63024.91;5103907;28;20208;-78
2022/04/27 04:08:28;;;;;;;4.53;3.58;;;;;;;10.05;100.00;63032.25;5101669;28;20291;-77
2022/04/27 04:10:54;;;;;;;3.42;3.13;;;;;;;10.19;100.00;63046.75;5103623;28;20222;-77
2022/04/27 04:13:22;;;;;;;5.00;3.47;;;;;;;10.30;100.00;63060.66;5103380;28;20224;-77
2022/04/27 04:15:49;;;;;;;3.63;3.40;;;;;;;10.44;100.00;63075.16;5104688;28;20218;-78
2022/04/27 04:18:16;;;;;;;3.97;3.70;;;;;;;10.59;100.00;63089.66;5100713;28;20553;-77
2022/04/27 04:20:44;;;;;;;5.05;4.57;;;;;;;10.67;100.00;63098.44;5103656;28;20207;-78
2022/04/27 04:23:12;;;;;;;6.88;4.30;;;;;;;10.92;100.00;63126.34;5103607;28;20375;-77
2022/04/27 04:28:32;;;;;;;4.05;3.70;;;;;;;11.22;100.00;63152.31;5100411;28;20261;-78
2022/04/27 04:31:01;;;;;;;5.32;4.80;;;;;;;11.37;100.00;63170.91;5106167;28;20194;-78
2022/04/27 04:33:28;;;;;;;4.65;4.28;;;;;;;11.48;100.00;63182.31;5103431;28;20260;-78
2022/04/27 04:35:56;;;;;;;4.18;3.70;;;;;;;11.61;100.00;63195.28;5099440;28;20201;-77
2022/04/27 04:38:24;;;;;;;6.10;4.18;;;;;;;11.81;100.00;63215.47;5104845;28;20416;-77
2022/04/27 04:40:52;;;;;;;6.20;4.53;;;;;;;11.94;100.00;63228.97;5103228;28;20245;-77
2022/04/27 04:43:19;;;;;;;5.38;4.95;;;;;;;11.82;100.00;63213.97;5104265;28;20236;-78
2022/04/27 04:45:46;;;;;;;5.85;4.40;;;;;;;11.52;100.00;63186.47;5099570;28;20200;-78
2022/04/27 04:48:12;;;;;;;5.28;4.80;;;;;;;11.41;100.00;63169.97;5104691;28;20453;-78
2022/04/27 04:50:39;;;;;;;9.70;5.53;;;;;;;11.61;100.00;63195.28;5106355;28;20200;-78
2022/04/27 04:53:06;;;;;;;5.63;5.22;;;;;;;11.58;100.00;63192.66;5105128;28;20219;-79
2022/04/27 04:55:35;;;;;;;6.53;5.97;;;;;;;11.56;100.00;63190.09;5096015;28;20201;-78
2022/04/27 04:58:02;;;;;;;14.75;6.65;;;;;;;11.53;100.00;63184.41;5107057;28;20239;-78
2022/04/27 05:00:29;;;;;;;10.13;7.05;;;;;;;11.65;100.00;63199.41;5124749;28;20258;-78
2022/04/27 05:02:56;;;;;;;16.90;7.65;;;;;;;11.58;100.00;63192.16;5109784;28;20240;-77
2022/04/27 05:05:23;;;;;;;12.90;7.72;;;;;;;11.55;100.00;63191.59;5100260;28;20223;-77
2022/04/27 05:07:50;;;;;;;11.82;7.10;;;;;;;11.62;100.00;63194.28;5105352;28;20261;-78
2022/04/27 05:10:17;;;;;;;14.05;7.20;;;;;;;11.80;100.00;63209.88;5103403;28;20498;-78
2022/04/27 05:12:45;;;;;;;11.45;6.85;;;;;;;11.88;100.00;63223.25;5098542;28;20219;-77
2022/04/27 05:15:12;;;;;;;7.75;6.50;;;;;;;12.03;100.00;63238.78;5102959;28;20196;-77
2022/04/27 05:17:40;;;;;;;7.18;5.97;;;;;;;12.04;100.00;63241.88;5103620;28;20257;-77
2022/04/27 05:20:08;;;;;;;6.80;6.18;;;;;;;12.05;100.00;63245.97;5103548;28;20195;-78
2022/04/27 05:22:38;;;;;;;8.48;7.13;;;;;;;12.10;100.00;63240.44;5100285;28;20231;-79
2022/04/27 05:25:06;;;;;;;7.57;6.68;;;;;;;12.17;100.00;63255.88;5109243;28;20203;-79
2022/04/27 05:27:33;;;;;;;11.93;6.22;;;;;;;12.27;100.00;63266.22;5109950;28;20235;-79
2022/04/27 05:32:46;;;;;;;15.85;7.00;;;;;;;12.40;100.00;63277.16;5108714;28;20226;-79
2022/04/27 05:35:13;;;;;;;11.07;6.30;;;;;;;12.69;100.00;63312.34;5108370;28;20212;-77
2022/04/27 05:37:40;;;;;;;8.10;5.78;;;;;;;12.95;100.00;63336.22;5103851;28;20261;-78
2022/04/27 05:40:08;;;;;;;6.57;5.57;;;;;;;13.00;100.00;63341.41;5102755;28;20242;-78
2022/04/27 05:42:36;;;;;;;5.85;5.35;;;;;;;12.98;100.00;63338.81;5108265;28;20223;-79
2022/04/27 05:45:05;;;;;;;5.75;5.25;;;;;;;13.08;100.00;63347.16;5108049;28;20238;-79
2022/04/27 05:47:33;;;;;;;8.93;5.80;;;;;;;13.05;100.00;63343.53;5108545;28;20517;-78
2022/04/27 05:50:00;;;;;;;7.00;5.25;;;;;;;13.16;100.00;63358.03;5101633;28;20192;-77
2022/04/27 05:52:26;;;;;;;10.32;5.32;;;;;;;13.22;100.00;63364.25;5106548;28;20220;-78
2022/04/27 05:54:53;;;;;;;9.75;5.82;;;;;;;13.22;100.00;63358.63;5110786;28;20280;-77
2022/04/27 05:57:20;;;;;;;6.35;5.40;;;;;;;13.11;100.00;63350.28;5109994;28;20224;-78
2022/04/27 05:59:48;;;;;;;10.90;6.43;;;;;;;13.35;100.00;63372.63;5110146;28;20215;-77
2022/04/27 06:02:16;;;;;;;10.30;5.70;;;;;;;13.35;100.00;63375.19;5103732;28;20235;-77
2022/04/27 06:04:43;;;;;;;10.63;5.97;;;;;;;13.44;100.00;63384.50;5103157;28;20250;-77
2022/04/27 06:07:10;;;;;;;9.45;6.68;;;;;;;13.75;100.00;63416.19;5102323;28;20227;-78
2022/04/27 06:09:38;;;;;;;12.77;6.03;;;;;;;13.78;100.00;63414.16;5106982;28;20199;-78
2022/04/27 06:12:07;;;;;;;7.85;6.00;;;;;;;13.85;100.00;63429.13;5106154;28;20232;-79
2022/04/27 06:14:36;;;;;;;9.02;6.78;;;;;;;13.54;100.00;63397.47;5103628;28;20201;-78
2022/04/27 06:17:03;;;;;;;7.07;6.05;;;;;;;13.76;100.00;63422.84;5086967;28;20200;-77
2022/04/27 06:19:31;;;;;;;8.85;6.95;;;;;;;13.86;100.00;63422.47;5099564;28;20237;-76
2022/04/27 06:21:58;;;;;;;7.00;6.20;;;;;;;13.93;100.00;63437.94;5105645;28;20192;-76
2022/04/27 06:24:26;;;;;;;12.68;6.72;;;;;;;14.05;100.00;63447.31;5099585;28;20469;-77
2022/04/27 06:26:54;;;;;;;8.30;5.82;;;;;;;14.27;100.00;63469.66;5102403;28;20196;-76
2022/04/27 06:29:20;;;;;;;9.10;6.15;;;;;;;14.33;100.00;63473.31;5100671;28;20251;-75
2022/04/27 06:31:47;;;;;;;8.73;6.28;;;;;;;14.71;99.87;63515.34;5101655;28;20198;-76
2022/04/27 06:34:14;;;;;;;6.97;6.22;;;;;;;14.77;97.37;63522.09;5094654;28;20204;-76
2022/04/27 06:36:42;;;;;;;15.30;6.35;;;;;;;14.93;97.30;63538.72;5098861;28;20199;-76
2022/04/27 06:39:12;;;;;;;7.47;6.30;;;;;;;15.18;95.66;63561.09;5098963;28;20219;-75
2022/04/27 06:41:39;;;;;;;12.48;6.50;;;;;;;15.40;93.06;63589.09;5099821;28;20508;-75
2022/04/27 06:44:06;;;;;;;10.93;6.93;;;;;;;15.49;92.72;63595.91;5094438;28;20281;-76
2022/04/27 06:46:33;;;;;;;9.13;5.78;;;;;;;15.62;91.69;63609.41;5102257;28;20558;-76
2022/04/27 06:49:00;;;;;;;10.43;5.50;;;;;;;15.43;93.01;63590.19;5099928;28;20261;-75
2022/04/27 06:51:27;;;;;;;7.93;5.50;;;;;;;15.14;92.67;63562.59;5109194;28;20442;-78
2022/04/27 06:53:55;;;;;;;7.40;5.80;;;;;;;15.17;93.66;63562.63;5107426;28;20226;-77
2022/04/27 06:56:22;;;;;;;7.18;5.15;;;;;;;15.28;92.19;63574.56;5107258;28;20184;-77
2022/04/27 06:58:50;;;;;;;9.38;6.22;;;;;;;15.39;91.90;63580.34;5101405;28;20272;-78
2022/04/27 07:01:18;;;;;;;7.93;6.20;;;;;;;15.48;90.58;63592.81;5109331;28;20206;-78
2022/04/27 07:03:45;;;;;;;6.60;5.93;;;;;;;15.60;89.64;63607.34;5106779;28;20431;-78
2022/04/27 07:06:13;;;;;;;8.57;6.13;;;;;;;15.44;89.85;63593.78;5100488;28;20244;-78
2022/04/27 07:08:40;;;;;;;6.82;6.22;;;;;;;15.81;89.34;63624.03;5104070;28;20215;-80
2022/04/27 07:11:08;;;;;;;12.40;6.13;;;;;;;15.97;87.31;63651.47;5106190;28;20195;-78
2022/04/27 07:13:35;;;;;;;8.35;6.15;;;;;;;15.85;88.04;63636.41;5102078;28;20470;-77
2022/04/27 07:16:03;;;;;;;9.70;6.53;;;;;;;15.89;87.48;63634.91;5104578;28;20203;-77
2022/04/27 07:18:30;;;;;;;8.07;5.70;;;;;;;16.02;87.08;63654.09;5094518;28;20655;-77
2022/04/27 07:20:57;;;;;;;8.65;6.72;;;;;;;16.17;85.89;63664.56;5104205;28;20195;-78
2022/04/27 07:23:25;;;;;;;8.70;5.65;;;;;;;16.40;84.81;63690.53;5104368;28;20231;-78
2022/04/27 07:25:52;;;;;;;7.60;6.00;;;;;;;16.37;85.48;63689.97;5104953;28;20289;-78
2022/04/27 07:28:20;;;;;;;13.30;7.40;;;;;;;16.47;84.66;63695.25;5101954;28;20219;-78
2022/04/27 07:30:47;;;;;;;14.25;7.18;;;;;;;16.29;84.53;63684.22;5099758;28;20237;-78
2022/04/27 07:33:14;;;;;;;11.32;7.35;;;;;;;16.38;85.15;63691.00;5102983;28;20215;-78
2022/04/27 07:35:40;;;;;;;7.55;6.35;;;;;;;16.26;85.59;63678.53;5096769;28;20219;-78
2022/04/27 07:38:07;;;;;;;7.88;6.45;;;;;;;16.47;85.39;63694.72;5102032;28;20219;-79
2022/04/27 07:40:34;;;;;;;20.52;8.07;;;;;;;16.66;84.84;63717.59;5099402;28;20261;-78
2022/04/27 07:43:01;;;;;;;16.80;7.07;;;;;;;16.61;86.87;63712.41;5098529;28;20280;-78
2022/04/27 07:45:30;;;;;;;11.15;6.60;;;;;;;16.49;85.62;63699.38;5102456;28;20203;-77
2022/04/27 07:47:56;;;;;;;12.98;6.50;;;;;;;16.69;85.48;63722.75;5102028;28;20220;-78
2022/04/27 07:50:23;;;;;;;6.78;6.07;;;;;;;16.53;85.69;63706.13;5103163;28;20253;-78
2022/04/27 07:52:51;;;;;;;19.50;6.88;;;;;;;16.48;89.07;63698.84;5102209;28;20242;-79
2022/04/27 07:55:17;;;;;;;10.85;6.72;;;;;;;16.78;85.03;63727.50;5103179;28;20199;-77
2022/04/27 07:57:45;;;;;;;10.48;7.25;;;;;;;16.93;83.43;63748.25;5103790;28;20211;-77
2022/04/27 08:00:13;;;;;;;9.00;6.95;;;;;;;16.61;84.86;63709.81;5100880;28;20191;-77
2022/04/27 08:02:42;;;;;;;10.95;6.70;;;;;;;16.79;84.16;63733.69;5101402;28;20253;-78
2022/04/27 08:05:10;;;;;;;7.03;5.75;;;;;;;16.96;80.49;63751.38;5100284;28;20232;-78
2022/04/27 08:07:38;;;;;;;6.47;5.95;;;;;;;16.93;80.84;63747.72;5102758;28;20211;-78
2022/04/27 08:10:11;;;;;;;9.75;6.57;;;;;;;17.21;79.61;63777.41;5101335;28;20203;-78
2022/04/27 08:12:39;;;;;;;6.82;6.15;;;;;;;17.40;78.36;63794.09;5101207;28;20211;-77
2022/04/27 08:15:07;;;;;;;11.55;6.28;;;;;;;17.65;79.43;63819.63;5103785;28;20194;-78
2022/04/27 08:17:34;;;;;;;9.45;6.90;;;;;;;17.80;77.99;63833.19;5102454;28;20294;-79
2022/04/27 08:22:47;;;;;;;7.38;5.60;;;;;;;17.88;77.18;63846.13;5100028;28;20517;-79
2022/04/27 08:25:14;;;;;;;6.32;5.55;;;;;;;17.85;76.40;63840.97;5104479;28;20233;-79
2022/04/27 08:27:41;;;;;;;5.70;5.22;;;;;;;18.11;72.93;63870.63;5106741;28;20215;-78
2022/04/27 08:30:09;;;;;;;7.80;5.10;;;;;;;18.32;72.94;63894.56;5099372;28;20443;-78
2022/04/27 08:32:36;;;;;;;6.05;5.45;;;;;;;18.14;71.23;63873.75;5104579;28;20219;-79
2022/04/27 08:35:04;;;;;;;9.30;5.70;;;;;;;17.75;73.54;63832.59;5104984;28;20203;-78
2022/04/27 08:37:31;;;;;;;8.20;5.28;;;;;;;17.85;72.12;63840.44;5103690;28;20211;-79
2022/04/27 08:39:59;;;;;;;6.85;5.32;;;;;;;18.06;68.40;63862.31;5101847;28;20210;-77
2022/04/27 08:42:25;;;;;;;10.38;5.45;;;;;;;17.98;67.83;63854.50;5108342;28;20227;-78
2022/04/27 08:44:52;;;;;;;9.85;4.55;;;;;;;18.28;68.30;63880.59;5107077;28;20410;-79
2022/04/27 08:47:19;;;;;;;10.32;6.10;;;;;;;18.47;65.75;63904.53;5106528;28;20215;-77
2022/04/27 08:49:46;;;;;;;6.78;5.22;;;;;;;18.32;65.16;63894.56;5102482;28;20225;-79
2022/04/27 08:52:15;;;;;;;6.80;5.13;;;;;;;18.50;65.46;63903.00;5115350;28;20237;-77
2022/04/27 08:54:42;;;;;;;7.65;4.25;;;;;;;18.71;63.01;63932.13;5104140;28;20191;-77
2022/04/27 08:57:09;;;;;;;5.07;4.47;;;;;;;19.12;62.24;63980.03;5101483;28;20242;-77
2022/04/27 08:59:37;;;;;;;4.55;3.95;;;;;;;19.41;62.30;64008.22;5106306;28;20248;-77
2022/04/27 09:02:25;;;;;;;9.23;4.35;;;;;;;19.68;59.67;64030.16;5106985;28;20206;-79
2022/04/27 09:05:07;;;;;;;4.65;4.20;;;;;;;19.20;57.00;63978.03;5103882;28;20227;-80
2022/04/27 09:07:43;;;;;;;4.20;3.72;;;;;;;18.71;62.10;63930.06;5103716;28;20253;-79
2022/04/27 09:10:11;;;;;;;7.28;3.83;;;;;;;18.87;60.59;63946.22;5106572;28;20190;-78
2022/04/27 09:12:45;;;;;;;5.75;3.83;;;;;;;19.26;61.45;63989.44;5103963;28;20220;-79
2022/04/27 09:15:13;;;;;;;6.05;3.50;;;;;;;19.43;55.51;64002.56;5100968;28;20200;-81
2022/04/27 09:23:21;;;;;;;10.20;4.40;;;;;;;19.91;56.71;64057.28;5098276;28;20239;-82
2022/04/27 09:25:50;;;;;;;9.75;3.85;;;;;;;20.13;57.57;64080.22;5100069;28;20218;-79
2022/04/27 09:28:17;;;;;;;6.07;4.10;;;;;;;20.47;56.56;64118.31;5105141;28;20225;-80
2022/04/27 09:30:45;;;;;;;4.90;3.63;;;;;;;20.53;52.51;64119.41;5107074;28;20192;-79
2022/04/27 09:33:12;;;;;;;4.40;4.00;;;;;;;20.34;49.85;64101.63;5106740;28;20268;-80
2022/04/27 09:35:39;;;;;;;4.72;3.95;;;;;;;20.05;54.16;64066.19;5106059;28;20266;-78
2022/04/27 09:38:14;;;;;;;5.43;4.70;;;;;;;20.29;52.76;64094.38;5104001;28;20223;-81
2022/04/27 09:40:48;;;;;;;7.38;5.38;;;;;;;20.18;51.71;64082.88;5106261;28;20211;-78
2022/04/27 09:43:16;;;;;;;4.32;3.72;;;;;;;20.09;49.64;64075.53;5104301;28;20222;-79
2022/04/27 09:45:44;;;;;;;7.43;2.88;;;;;;;20.17;47.40;64084.41;5097331;28;20248;-79
2022/04/27 09:48:18;;;;;;;5.30;3.05;;;;;;;19.98;50.02;64069.75;5103957;28;20532;-78
2022/04/27 09:50:50;;;;;;;5.20;3.70;;;;;;;20.09;51.43;64076.06;5105181;28;20194;-78
2022/04/27 09:53:19;;;;;;;6.35;3.45;;;;;;;20.44;49.74;64110.00;5101738;28;20262;-78
2022/04/27 09:55:54;;;;;;;5.32;2.70;;;;;;;20.62;49.85;64133.47;5100448;28;20271;-78
2022/04/27 09:58:25;;;;;;;4.60;3.55;;;;;;;20.68;50.30;64134.53;5087744;28;20585;-79
2022/04/27 10:00:57;;;;;;;4.88;3.80;;;;;;;20.99;50.45;64166.91;5104659;28;20269;-78
2022/04/27 10:03:26;;;;;;;3.70;2.83;;;;;;;20.82;49.13;64151.75;5106219;28;20237;-78
2022/04/27 10:05:54;;;;;;;11.05;5.25;;;;;;;20.72;49.57;64143.38;5094334;28;20277;-79
2022/04/27 10:08:22;;;;;;;6.88;3.22;;;;;;;20.89;48.37;64159.06;5100915;28;20448;-80
2022/04/27 10:10:51;;;;;;;5.35;4.78;;;;;;;20.89;47.84;64161.13;5108568;28;20258;-80
2022/04/27 10:13:18;;;;;;;4.13;3.28;;;;;;;20.53;48.13;64121.47;5109168;28;20253;-79
2022/04/27 10:15:47;;;;;;;6.25;2.55;;;;;;;20.47;47.10;64115.19;5102489;28;20203;-77
2022/04/27 10:18:16;;;;;;;4.60;2.80;;;;;;;20.79;47.73;64148.63;5108773;28;20458;-77
2022/04/27 10:20:44;;;;;;;6.72;3.35;;;;;;;20.98;50.10;64176.25;5108592;28;20237;-78
2022/04/27 10:23:19;;;;;;;3.95;3.60;;;;;;;21.28;48.30;64202.38;5103463;28;20258;-78
2022/04/27 10:26:08;;;;;;;5.45;2.90;;;;;;;21.46;48.19;64218.06;5103453;28;20312;-78
2022/04/27 10:28:37;;;;;;;3.53;3.22;;;;;;;21.79;48.52;64255.16;5094229;28;20226;-79
2022/04/27 10:31:08;;;;;;;4.80;3.25;;;;;;;21.61;46.47;64234.25;5097657;28;20210;-79
2022/04/27 10:33:43;;;;;;;3.58;3.28;;;;;;;21.33;46.55;64201.91;5107031;28;20230;-81
2022/04/27 10:36:37;;;;;;;2.90;2.72;;;;;;;21.13;47.79;64183.59;5102189;28;20442;-78
2022/04/27 10:39:19;;;;;;;3.42;2.95;;;;;;;21.44;47.28;64219.09;5108537;28;20219;-78
2022/04/27 10:41:55;;;;;;;3.45;2.95;;;;;;;21.43;46.00;64214.94;5107891;28;20506;-78
2022/04/27 10:44:22;;;;;;;3.15;2.90;;;;;;;21.60;47.22;64230.09;5099620;28;20215;-79
2022/04/27 10:46:49;;;;;;;3.30;3.03;;;;;;;21.84;48.29;64260.38;5088515;28;20429;-78
2022/04/27 10:49:23;;;;;;;4.70;3.35;;;;;;;21.99;49.80;64276.06;5089044;28;20404;-78
2022/04/27 10:52:00;;;;;;;3.15;2.83;;;;;;;22.28;49.51;64306.38;5106991;28;20202;-77
2022/04/27 10:54:28;;;;;;;4.45;2.58;;;;;;;22.33;48.13;64311.59;5106956;28;20203;-79
2022/04/27 10:57:16;;;;;;;3.00;2.70;;;;;;;22.20;49.16;64300.59;5103037;28;20420;-78
2022/04/27 10:59:44;;;;;;;5.63;2.72;;;;;;;22.29;46.86;64301.69;5102897;28;20199;-79
2022/04/27 11:02:32;;;;;;;5.38;2.88;;;;;;;22.28;46.76;64305.84;5104127;28;20216;-79
2022/04/27 11:04:59;;;;;;;3.70;2.72;;;;;;;22.17;46.07;64291.75;5105303;28;20608;-78
2022/04/27 11:07:38;;;;;;;2.67;2.58;;;;;;;22.46;47.12;64322.59;5095558;28;20458;-78
2022/04/27 11:10:14;;;;;;;3.58;2.67;;;;;;;22.57;47.40;64331.00;5101717;28;20203;-78
2022/04/27 11:12:46;;;;;;;3.33;2.90;;;;;;;22.67;47.43;64347.16;5107745;28;20219;-78
2022/04/27 11:15:16;;;;;;;3.60;2.75;;;;;;;22.62;49.81;64336.72;5107417;28;20249;-79
2022/04/27 11:17:43;;;;;;;2.72;2.53;;;;;;;22.63;49.09;64342.97;5094982;28;20219;-78
2022/04/27 11:20:25;;;;;;;3.03;2.72;;;;;;;22.79;47.18;64356.59;5102269;28;20195;-78
2022/04/27 11:22:52;;;;;;;5.28;2.78;;;;;;;22.92;47.08;64375.91;5105327;28;20401;-78
2022/04/27 11:25:30;;;;;;;4.72;2.40;;;;;;;22.72;45.99;64349.25;5103497;28;20234;-80
2022/04/27 11:27:59;;;;;;;3.08;2.90;;;;;;;22.66;46.12;64340.91;5098905;28;20219;-78
2022/04/27 11:30:28;;;;;;;2.75;2.55;;;;;;;23.00;46.59;64378.03;5104767;28;20204;-79
2022/04/27 11:32:55;;;;;;;3.13;2.78;;;;;;;22.92;47.41;64365.50;5111644;28;20278;-78
2022/04/27 11:35:24;;;;;;;3.30;3.00;;;;;;;23.08;45.20;64383.78;5111083;28;20210;-78
2022/04/27 11:37:53;;;;;;;5.15;2.58;;;;;;;23.29;46.74;64408.91;5110209;28;20424;-79
2022/04/27 11:40:25;;;;;;;4.15;3.00;;;;;;;23.22;44.66;64398.97;5106238;28;20199;-78
2022/04/27 11:42:52;;;;;;;5.75;2.70;;;;;;;23.27;45.31;64403.66;5111088;28;20211;-78
2022/04/27 11:45:22;;;;;;;6.53;2.70;;;;;;;23.16;45.04;64397.88;5108078;28;20383;-79
2022/04/27 11:47:57;;;;;;;8.50;2.70;;;;;;;23.17;44.21;64398.41;5096928;28;20250;-79
2022/04/27 11:50:25;;;;;;;3.42;2.38;;;;;;;23.32;44.55;64416.69;5107822;28;20418;-79
2022/04/27 11:53:03;;;;;;;2.22;1.95;;;;;;;23.45;41.61;64425.13;5104352;28;20211;-79
2022/04/27 11:55:31;;;;;;;3.30;1.95;;;;;;;23.71;42.43;64455.44;5105788;28;20199;-79